createdAt,value
2019-04-04T00:02:32.112Z,12.87
2019-04-04T00:05:37.053Z,13.40
2019-04-04T00:08:42.005Z,12.53
2019-04-04T00:11:46.932Z,12.00
2019-04-04T00:14:52.044Z,12.63
2019-04-04T00:17:56.888Z,11.77
2019-04-04T00:21:02.800Z,11.10
2019-04-04T00:24:09.130Z,12.37
2019-04-04T00:27:14.687Z,11.90
2019-04-04T00:30:19.685Z,13.50
2019-04-04T00:33:25.728Z,11.97
2019-04-04T00:36:33.894Z,12.87
2019-04-04T00:39:39.883Z,12.47
2019-04-04T00:42:45.927Z,14.60
2019-04-04T00:45:51.393Z,11.90
2019-04-04T00:48:56.165Z,13.17
2019-04-04T00:52:01.188Z,12.90
2019-04-04T00:55:06.556Z,12.40
2019-04-04T00:58:11.582Z,15.90
2019-04-04T01:01:16.788Z,12.23
2019-04-04T01:04:21.869Z,11.47
2019-04-04T01:07:26.842Z,12.03
2019-04-04T01:14:47.661Z,12.20
2019-04-04T01:17:53.143Z,13.90
2019-04-04T01:20:58.372Z,13.20
2019-04-04T01:24:16.132Z,13.17
2019-04-04T01:27:21.335Z,12.00
2019-04-04T01:30:26.652Z,13.00
2019-04-04T01:33:31.645Z,12.53
2019-04-04T01:36:36.731Z,13.13
2019-04-04T01:39:41.691Z,12.60
2019-04-04T01:42:46.819Z,13.77
2019-04-04T01:45:52.104Z,11.40
2019-04-04T01:48:57.039Z,14.10
2019-04-04T01:52:01.979Z,13.97
2019-04-04T01:55:07.004Z,12.10
2019-04-04T01:58:12.149Z,13.37
2019-04-04T02:01:17.137Z,13.27
2019-04-04T02:04:22.958Z,12.43
2019-04-04T02:07:29.752Z,14.27
2019-04-04T02:10:35.426Z,14.20
2019-04-04T02:13:40.894Z,12.37
2019-04-04T02:16:51.010Z,13.90
2019-04-04T02:19:55.589Z,12.47
2019-04-04T02:23:01.456Z,12.20
2019-04-04T02:26:06.996Z,13.30
2019-04-04T02:29:11.970Z,15.93
2019-04-04T02:32:18.535Z,13.60
2019-04-04T02:35:23.517Z,13.77
2019-04-04T02:38:28.803Z,13.90
2019-04-04T02:41:33.800Z,13.93
2019-04-04T02:44:38.873Z,13.67
2019-04-04T02:47:43.831Z,16.93
2019-04-04T02:50:49.158Z,16.27
2019-04-04T02:53:54.313Z,20.30
2019-04-04T02:56:59.244Z,18.67
2019-04-04T03:00:04.961Z,19.30
2019-04-04T03:03:09.946Z,20.63
2019-04-04T03:06:15.141Z,24.80
2019-04-04T03:09:20.324Z,19.40
2019-04-04T03:12:26.299Z,20.90
2019-04-04T03:15:31.985Z,16.63
2019-04-04T03:18:37.981Z,16.53
2019-04-04T03:21:43.267Z,17.97
2019-04-04T03:24:48.201Z,15.90
2019-04-04T03:27:53.050Z,15.47
2019-04-04T03:31:02.407Z,16.30
2019-04-04T03:34:11.495Z,15.93
2019-04-04T03:37:12.439Z,15.10
2019-04-04T03:40:17.497Z,13.40
2019-04-04T03:43:22.533Z,15.97
2019-04-04T03:46:27.685Z,14.50
2019-04-04T03:49:32.608Z,14.00
2019-04-04T03:52:37.500Z,14.63
2019-04-04T03:55:42.593Z,15.43
2019-04-04T03:58:47.828Z,16.97
2019-04-04T04:01:53.505Z,15.00
2019-04-04T04:05:01.003Z,16.27
2019-04-04T04:08:05.106Z,14.50
2019-04-04T04:11:10.159Z,17.97
2019-04-04T04:14:15.022Z,15.30
2019-04-04T04:17:20.045Z,14.23
2019-04-04T04:20:25.211Z,14.33
2019-04-04T04:23:30.399Z,15.50
2019-04-04T04:26:35.294Z,16.23
2019-04-04T04:29:40.492Z,14.43
2019-04-04T04:32:45.419Z,15.23
2019-04-04T04:35:50.525Z,14.83
2019-04-04T04:38:58.783Z,15.20
2019-04-04T04:42:02.368Z,14.97
2019-04-04T04:45:11.068Z,15.77
2019-04-04T04:48:14.003Z,16.77
2019-04-04T04:51:19.034Z,15.00
2019-04-04T04:54:24.155Z,15.13
2019-04-04T04:57:30.287Z,14.33
2019-04-04T05:00:35.360Z,13.93
2019-04-04T05:03:40.626Z,19.90
2019-04-04T05:06:45.558Z,14.30
2019-04-04T05:09:50.411Z,19.50
2019-04-04T05:12:55.526Z,13.90
2019-04-04T05:16:02.079Z,14.43
2019-04-04T05:19:07.249Z,16.63
2019-04-04T05:22:12.388Z,14.60
2019-04-04T05:25:17.311Z,18.70
2019-04-04T05:28:22.296Z,16.97
2019-04-04T05:31:27.501Z,14.23
2019-04-04T05:34:32.352Z,15.07
2019-04-04T05:37:38.290Z,14.67
2019-04-04T05:40:44.092Z,15.80
2019-04-04T05:43:48.934Z,17.40
2019-04-04T05:46:54.270Z,16.03
2019-04-04T05:49:59.176Z,14.33
2019-04-04T05:53:04.970Z,17.30
2019-04-04T05:56:09.981Z,16.30
2019-04-04T05:59:14.850Z,16.70
2019-04-04T06:02:19.806Z,15.27
2019-04-04T06:05:26.886Z,18.10
2019-04-04T06:08:31.564Z,14.27
2019-04-04T06:11:36.693Z,15.37
2019-04-04T06:14:41.875Z,15.93
2019-04-04T06:17:46.988Z,19.43
2019-04-04T06:20:51.932Z,15.70
2019-04-04T06:23:57.039Z,22.60
2019-04-04T06:27:02.284Z,19.43
2019-04-04T06:30:07.556Z,18.60
2019-04-04T06:33:12.450Z,19.10
2019-04-04T06:36:17.912Z,20.23
2019-04-04T06:39:25.133Z,13.90
2019-04-04T06:42:29.767Z,16.47
2019-04-04T06:45:35.204Z,14.93
2019-04-04T06:48:40.168Z,13.87
2019-04-04T06:51:46.455Z,11.97
2019-04-04T06:54:51.432Z,14.33
2019-04-04T06:57:56.420Z,15.87
2019-04-04T07:01:01.405Z,13.30
2019-04-04T07:04:06.381Z,18.23
2019-04-04T07:07:12.773Z,14.10
2019-04-04T07:10:20.920Z,12.80
2019-04-04T07:13:28.083Z,14.53
2019-04-04T07:16:31.542Z,16.50
2019-04-04T07:19:36.367Z,14.70
2019-04-04T07:22:41.383Z,14.17
2019-04-04T07:25:46.349Z,14.57
2019-04-04T07:28:53.882Z,14.87
2019-04-04T07:31:57.870Z,15.03
2019-04-04T07:35:02.912Z,14.87
2019-04-04T07:38:08.058Z,14.10
2019-04-04T07:41:14.761Z,14.37
2019-04-04T07:44:21.170Z,14.47
2019-04-04T07:47:25.981Z,14.83
2019-04-04T07:50:30.965Z,15.07
2019-04-04T07:53:36.450Z,16.73
2019-04-04T07:56:43.476Z,14.57
2019-04-04T07:59:48.697Z,15.50
2019-04-04T08:02:53.773Z,14.50
2019-04-04T08:05:58.948Z,15.53
2019-04-04T08:09:06.542Z,17.00
2019-04-04T08:12:11.402Z,18.47
2019-04-04T08:15:16.313Z,14.47
2019-04-04T08:18:21.448Z,14.60
2019-04-04T08:21:26.591Z,14.27
2019-04-04T08:24:31.876Z,15.00
2019-04-04T08:27:36.834Z,15.00
2019-04-04T08:30:41.749Z,15.03
2019-04-04T08:33:46.858Z,14.37
2019-04-04T08:36:52.054Z,13.37
2019-04-04T08:39:57.053Z,13.47
2019-04-04T08:43:02.190Z,13.93
2019-04-04T08:46:07.205Z,14.20
2019-04-04T08:49:12.431Z,14.50
2019-04-04T08:52:20.659Z,14.73
2019-04-04T08:55:23.953Z,15.37
2019-04-04T08:58:29.096Z,14.17
2019-04-04T09:01:34.064Z,12.37
2019-04-04T09:04:39.102Z,12.77
2019-04-04T09:07:44.027Z,13.57
2019-04-04T09:10:48.964Z,14.07
2019-04-04T09:13:53.979Z,13.33
2019-04-04T09:16:59.144Z,12.03
2019-04-04T09:20:04.473Z,11.90
2019-04-04T09:23:09.430Z,12.50
2019-04-04T09:26:14.521Z,12.20
2019-04-04T09:29:19.509Z,13.20
2019-04-04T09:32:24.326Z,13.73
2019-04-04T09:35:29.305Z,11.50
2019-04-04T09:38:34.295Z,12.90
2019-04-04T09:41:39.574Z,11.03
2019-04-04T09:44:44.476Z,10.87
2019-04-04T09:47:49.573Z,9.87
2019-04-04T09:50:54.433Z,11.50
2019-04-04T09:53:59.473Z,11.37
2019-04-04T09:57:04.651Z,12.00
2019-04-04T10:00:12.931Z,9.97
2019-04-04T10:03:17.927Z,10.67
2019-04-04T10:06:22.996Z,9.43
2019-04-04T10:09:27.968Z,9.10
2019-04-04T10:12:33.608Z,9.27
2019-04-04T10:15:38.615Z,9.13
2019-04-04T10:18:43.720Z,9.97
2019-04-04T10:21:48.959Z,9.57
2019-04-04T10:24:53.918Z,10.73
2019-04-04T10:27:59.038Z,9.83
2019-04-04T10:31:04.069Z,10.00
2019-04-04T10:34:09.062Z,10.13
2019-04-04T10:37:13.761Z,9.57
2019-04-04T10:40:18.691Z,9.10
2019-04-04T10:43:24.835Z,9.87
2019-04-04T10:46:29.630Z,8.70
2019-04-04T10:49:34.548Z,8.53
2019-04-04T10:52:39.535Z,8.87
2019-04-04T10:55:44.490Z,11.03
2019-04-04T10:58:49.611Z,9.87
2019-04-04T11:01:54.671Z,9.00
2019-04-04T11:04:59.894Z,9.83
2019-04-04T11:08:05.005Z,8.77
2019-04-04T11:11:09.867Z,9.13
2019-04-04T11:14:14.840Z,9.63
2019-04-04T11:17:19.868Z,10.93
2019-04-04T11:20:24.776Z,12.20
2019-04-04T11:23:29.759Z,11.63
2019-04-04T11:26:34.619Z,11.50
2019-04-04T11:29:39.546Z,11.27
2019-04-04T11:32:44.486Z,11.80
2019-04-04T11:35:49.467Z,12.97
2019-04-04T11:38:54.553Z,12.17
2019-04-04T11:41:59.544Z,11.23
2019-04-04T11:45:04.942Z,11.13
2019-04-04T11:48:10.276Z,12.60
2019-04-04T11:51:15.507Z,9.70
2019-04-04T11:54:20.460Z,8.83
2019-04-04T11:57:25.314Z,8.23
2019-04-04T12:00:33.187Z,8.17
2019-04-04T12:03:38.217Z,7.90
2019-04-04T12:06:43.565Z,9.77
2019-04-04T12:09:48.791Z,9.33
2019-04-04T12:12:53.767Z,8.43
2019-04-04T12:15:58.661Z,9.73
2019-04-04T12:19:03.572Z,9.90
2019-04-04T12:22:11.566Z,9.70
2019-04-04T12:25:15.531Z,10.17
2019-04-04T12:28:20.536Z,9.60
2019-04-04T12:31:25.559Z,9.50
2019-04-04T12:34:30.522Z,11.20
2019-04-04T12:37:35.589Z,9.07
2019-04-04T12:40:40.629Z,10.03
2019-04-04T12:43:46.018Z,10.53
2019-04-04T12:46:51.063Z,10.00
2019-04-04T12:49:56.899Z,10.38
2019-04-04T12:53:02.133Z,12.00
2019-04-04T12:56:07.247Z,9.83
2019-04-04T12:59:12.621Z,11.37
2019-04-04T13:02:17.601Z,11.90
2019-04-04T13:05:22.762Z,11.13
2019-04-04T13:08:30.505Z,10.67
2019-04-04T13:11:34.649Z,9.80
2019-04-04T13:14:40.943Z,9.77
2019-04-04T13:17:46.075Z,13.90
2019-04-04T13:20:51.385Z,10.97
2019-04-04T13:23:56.496Z,10.43
2019-04-04T13:27:01.478Z,12.90
2019-04-04T13:30:08.909Z,12.13
2019-04-04T13:33:14.989Z,11.87
2019-04-04T13:36:20.077Z,11.40
2019-04-04T13:39:25.121Z,10.93
2019-04-04T13:42:30.689Z,11.40
2019-04-04T13:45:36.081Z,11.87
2019-04-04T13:48:43.092Z,11.17
2019-04-04T13:51:48.129Z,11.77
2019-04-04T13:54:55.680Z,11.40
2019-04-04T13:57:59.813Z,11.27
2019-04-04T14:01:04.961Z,11.17
2019-04-04T14:04:10.021Z,10.40
2019-04-04T14:07:15.318Z,11.17
2019-04-04T14:10:20.330Z,10.90
2019-04-04T14:13:26.313Z,11.07
2019-04-04T14:16:31.958Z,9.73
2019-04-04T14:19:36.994Z,9.33
2019-04-04T14:22:42.373Z,10.90
2019-04-04T14:25:47.402Z,9.67
2019-04-04T14:28:52.429Z,9.90
2019-04-04T14:32:00.041Z,9.20
2019-04-04T14:35:06.053Z,9.40
2019-04-04T14:38:11.099Z,10.00
2019-04-04T14:41:17.631Z,8.57
2019-04-04T14:44:23.055Z,8.10
2019-04-04T14:47:28.208Z,8.70
2019-04-04T14:50:33.292Z,7.80
2019-04-04T14:53:38.718Z,7.67
2019-04-04T14:56:43.978Z,8.40
2019-04-04T14:59:49.067Z,7.10
2019-04-04T15:02:54.163Z,7.37
2019-04-04T15:05:59.107Z,7.70
2019-04-04T15:09:05.895Z,7.27
2019-04-04T15:12:10.862Z,8.70
2019-04-04T15:15:15.878Z,8.07
2019-04-04T15:18:20.896Z,7.53
2019-04-04T15:21:25.993Z,7.80
2019-04-04T15:24:31.128Z,9.13
2019-04-04T15:27:36.109Z,6.97
2019-04-04T15:30:41.159Z,7.20
2019-04-04T15:33:46.370Z,7.60
2019-04-04T15:36:51.667Z,7.23
2019-04-04T15:39:56.551Z,6.40
2019-04-04T15:43:01.580Z,7.20
2019-04-04T15:46:06.796Z,7.10
2019-04-04T15:49:12.614Z,7.60
2019-04-04T15:52:17.770Z,7.47
2019-04-04T15:55:22.718Z,7.07
2019-04-04T15:58:27.841Z,7.53
2019-04-04T16:01:32.952Z,9.30
2019-04-04T16:04:38.301Z,6.80
2019-04-04T16:07:43.391Z,6.53
2019-04-04T16:10:48.348Z,6.33
2019-04-04T16:13:53.326Z,6.20
2019-04-04T16:16:58.097Z,5.90
2019-04-04T16:20:03.421Z,8.13
2019-04-04T16:23:08.431Z,6.07
2019-04-04T16:26:16.821Z,6.20
2019-04-04T16:29:21.861Z,6.10
2019-04-04T16:32:26.912Z,6.17
2019-04-04T16:35:32.094Z,6.20
2019-04-04T16:38:37.238Z,6.43
2019-04-04T16:41:42.212Z,5.50
2019-04-04T16:44:47.337Z,5.07
2019-04-04T16:47:53.417Z,5.60
2019-04-04T16:51:00.652Z,6.07
2019-04-04T16:54:07.354Z,5.67
2019-04-04T16:57:12.332Z,5.30
2019-04-04T17:00:20.937Z,6.53
2019-04-04T17:03:27.073Z,11.37
2019-04-04T17:06:32.374Z,7.60
2019-04-04T17:09:37.711Z,13.03
2019-04-04T17:12:42.602Z,6.37
2019-04-04T17:15:47.587Z,6.83
2019-04-04T17:18:52.866Z,8.80
2019-04-04T17:21:57.929Z,9.17
2019-04-04T17:25:03.574Z,7.80
2019-04-04T17:28:09.055Z,6.90
2019-04-04T17:31:15.753Z,6.63
2019-04-04T17:34:21.537Z,7.63
2019-04-04T17:37:26.766Z,6.60
2019-04-04T17:40:32.236Z,6.93
2019-04-04T17:43:37.213Z,6.93
2019-04-04T17:46:42.380Z,8.87
2019-04-04T17:49:47.338Z,8.80
2019-04-04T17:52:53.343Z,7.23
2019-04-04T17:55:59.724Z,8.60
2019-04-04T17:59:04.844Z,6.73
2019-04-04T18:02:10.322Z,7.83
2019-04-04T18:05:16.035Z,8.17
2019-04-04T18:08:21.082Z,8.00
2019-04-04T18:11:26.046Z,8.67
2019-04-04T18:14:30.919Z,9.20
2019-04-04T18:17:36.013Z,7.93
2019-04-04T18:20:41.184Z,8.80
2019-04-04T18:23:46.208Z,9.53
2019-04-04T18:26:51.562Z,8.77
2019-04-04T18:29:56.793Z,11.93
2019-04-04T18:33:02.390Z,10.37
2019-04-04T18:36:07.376Z,12.70
2019-04-04T18:39:12.711Z,11.43
2019-04-04T18:42:17.603Z,10.93
2019-04-04T18:45:22.693Z,10.67
2019-04-04T18:48:27.785Z,9.70
2019-04-04T18:51:32.864Z,9.40
2019-04-04T18:54:38.560Z,9.50
2019-04-04T18:57:43.552Z,8.97
2019-04-04T19:00:48.600Z,9.03
2019-04-04T19:03:53.704Z,7.47
2019-04-04T19:06:59.111Z,7.73
2019-04-04T19:10:04.294Z,8.00
2019-04-04T19:13:09.273Z,7.07
2019-04-04T19:16:14.680Z,7.33
2019-04-04T19:19:19.776Z,9.37
2019-04-04T19:22:24.909Z,8.10
2019-04-04T19:25:30.185Z,10.53
2019-04-04T19:28:36.481Z,9.67
2019-04-04T19:31:41.755Z,9.43
2019-04-04T19:34:47.163Z,9.43
2019-04-04T19:37:59.873Z,9.20
2019-04-04T19:40:59.447Z,10.40
2019-04-04T19:44:04.826Z,9.87
2019-04-04T19:47:10.184Z,10.37
2019-04-04T19:50:15.569Z,10.20
2019-04-04T19:53:20.866Z,10.03
2019-04-04T19:56:26.001Z,9.47
2019-04-04T19:59:31.136Z,8.97
2019-04-04T20:02:36.377Z,9.70
2019-04-04T20:05:44.369Z,9.07
2019-04-04T20:08:51.067Z,9.43
2019-04-04T20:11:55.377Z,10.97
2019-04-04T20:15:00.371Z,11.00
2019-04-04T20:18:05.833Z,11.13
2019-04-04T20:21:11.032Z,10.87
2019-04-04T20:24:16.125Z,10.40
2019-04-04T20:27:23.482Z,10.20
2019-04-04T20:30:39.228Z,12.30
2019-04-04T20:33:44.286Z,10.13
2019-04-04T20:36:49.378Z,10.70
2019-04-04T20:39:56.882Z,9.90
2019-04-04T20:43:02.028Z,11.17
2019-04-04T20:46:07.000Z,12.23
2019-04-04T20:49:12.577Z,10.93
2019-04-04T20:52:17.602Z,11.60
2019-04-04T20:55:22.731Z,9.80
2019-04-04T20:58:27.935Z,11.13
2019-04-04T21:01:32.994Z,11.50
2019-04-04T21:04:38.067Z,10.73
2019-04-04T21:07:43.061Z,11.00
2019-04-04T21:10:48.276Z,12.77
2019-04-04T21:13:56.288Z,12.87
2019-04-04T21:17:00.344Z,12.30
2019-04-04T21:20:05.788Z,12.80
2019-04-04T21:23:10.989Z,12.83
2019-04-04T21:26:16.209Z,12.43
2019-04-04T21:29:21.116Z,11.70
2019-04-04T21:32:26.173Z,12.57
2019-04-04T21:35:31.195Z,14.40
2019-04-04T21:38:36.649Z,13.67
2019-04-04T21:41:42.094Z,12.57
2019-04-04T21:44:47.176Z,13.20
2019-04-04T21:47:52.505Z,16.03
2019-04-04T21:50:57.626Z,13.70
2019-04-04T21:54:02.727Z,13.50
2019-04-04T21:57:07.729Z,12.27
2019-04-04T22:00:13.588Z,13.37
2019-04-04T22:03:18.684Z,12.13
2019-04-04T22:06:24.014Z,12.83
2019-04-04T22:09:29.049Z,14.30
2019-04-04T22:12:34.215Z,11.50
2019-04-04T22:15:39.251Z,13.10
2019-04-04T22:18:44.541Z,13.40
2019-04-04T22:21:49.436Z,12.47
2019-04-04T22:24:54.517Z,13.43
2019-04-04T22:27:59.516Z,12.43
2019-04-04T22:31:04.882Z,11.93
2019-04-04T22:34:09.735Z,16.77
2019-04-04T22:37:14.818Z,13.07
2019-04-04T22:40:19.898Z,14.50
2019-04-04T22:43:24.847Z,13.00
2019-04-04T22:46:30.152Z,13.70
2019-04-04T22:49:35.179Z,13.90
2019-04-04T22:52:40.159Z,12.57
2019-04-04T22:55:45.148Z,13.10
2019-04-04T22:58:50.155Z,12.03
2019-04-04T23:01:55.213Z,12.00
2019-04-04T23:05:00.197Z,14.13
2019-04-04T23:08:07.462Z,13.90
2019-04-04T23:11:11.904Z,12.00
2019-04-04T23:14:16.896Z,12.97
2019-04-04T23:17:22.597Z,11.47
2019-04-04T23:20:27.859Z,12.47
2019-04-04T23:23:32.964Z,11.77
2019-04-04T23:26:38.219Z,11.80
2019-04-04T23:29:43.316Z,11.23
2019-04-04T23:32:48.579Z,10.80
2019-04-04T23:35:54.039Z,12.30
2019-04-04T23:38:59.361Z,11.73
2019-04-04T23:42:04.796Z,12.07
2019-04-04T23:45:10.061Z,10.83
2019-04-04T23:48:15.005Z,16.83
2019-04-04T23:51:20.363Z,14.67
2019-04-04T23:54:25.549Z,11.07
2019-04-04T23:57:30.510Z,10.87
